Fort Smith Airport
CYSM : now visible

Airfield :











YOU CAN JOIN US ON...

 
LOGIN :

Register | Disclaimer

   EN    FR    IT 

 









Legend :    VFR   Marginal VFR   IFR   Intensive IFR   Very Intensive IFR
Visi :
Ceiling :
>= 8 km
>= 3000ft
5 to 8 km
1000 to 3000 ft
1500m to 5 km
500 to 1000 ft
800 to 1500m
200 to 500 ft
< 800m
< 200 ft
Symbols :   Thunderstorms  Fog  Heavy snow  Heavy precipitations  Wind > 20 kt






- Airport Elevation : 671 ft
- IATA code : YSM


CYSM - Fort Smith

CURRENT METAR :
  • 271832Z 15011G18KT 3SM -SN BR OVC003 M05/M06 A2976 RMK ST8 SLP097

EXPIRED METARs :
  • 271800Z 15011KT 2SM -SN BR OVC003 M06/M07 A2977 RMK ST8 SLP100
  • 271700Z 15010G15KT 1 1/2SM -SN BR OVC003 M07/M08 A2978 RMK ST8 SLP102
  • 271654Z 15011G17KT 1 3/4SM -SN BR OVC003 M07/M08 A2978 RMK ST8 SLP102
  • 271619Z 14012G20KT 2 1/2SM -SN OVC003 M08/M08 A2978 RMK ST8 SLP105
  • 271600Z 15013G19KT 15SM OVC005 M08/M09 A2978 RMK ST8 SLP105

TAF TAF CYSM
Valid from the 27 at 18:00 until the 28 at 06:00 UTC


271738Z 2718/2806 15010G20KT 11/2SM -SN BR OVC003
TEMPO 2718/2721 P6SM NSW OVC006
FM272100 16010KT 3SM -SN BR OVC005
TEMPO 2721/2803 P6SM NSW OVC008
FM280300 17006KT 2SM -SN BR OVC003 RMK NXT FCST BY 280000Z



MET'MAP, your aeronautical weather chart ! - Copyright ORBIFLY December 2007 - Disclaimer

ORBIFLY MET'MAP TEAM :

Programming & Development : Alexandra Zaïnal
Concept & original design : Baudouin d'Aumeries
Assistance for programming : Marc-Olivier Méhu
Technical & hardware support : Manuel Goepfert

Contact : metmap@orbifly.com




SOURCES & CREDITS :

   NOAA       Earth
Advisory